createdAt,value
2022-09-28T00:01:25.037Z,98803.28
2022-09-28T00:04:27.652Z,98811.31
2022-09-28T00:07:30.010Z,98799.84
2022-09-28T00:10:32.275Z,98807.56
2022-09-28T00:13:35.323Z,98805.38
2022-09-28T00:16:43.773Z,98797.38
2022-09-28T00:19:46.167Z,98774.72
2022-09-28T00:22:48.372Z,98781.63
2022-09-28T00:25:50.918Z,98783.25
2022-09-28T00:28:54.454Z,98795.78
2022-09-28T00:32:04.183Z,98796.31
2022-09-28T00:35:07.019Z,98788.88
2022-09-28T00:38:09.522Z,98778.19
2022-09-28T00:41:12.339Z,98787.81
2022-09-28T00:44:26.845Z,98800.63
2022-09-28T00:47:49.919Z,98809.19
2022-09-28T00:50:52.855Z,98797.41
2022-09-28T00:53:56.311Z,98799.81
2022-09-28T00:56:59.301Z,98811.31
2022-09-28T01:00:02.362Z,98807.59
2022-09-28T01:03:04.637Z,98804.34
2022-09-28T01:06:07.843Z,98814.00
2022-09-28T01:09:10.673Z,98819.38
2022-09-28T01:12:13.098Z,98819.63
2022-09-28T01:15:15.664Z,98816.16
2022-09-28T01:18:35.612Z,98824.47
2022-09-28T01:22:19.169Z,98826.59
2022-09-28T01:25:46.795Z,98817.25
2022-09-28T01:28:55.587Z,98823.16
2022-09-28T01:32:31.995Z,98822.06
2022-09-28T01:35:44.687Z,98824.75
2022-09-28T01:38:49.354Z,98823.66
2022-09-28T01:41:53.303Z,98841.81
2022-09-28T01:45:01.718Z,98827.88
2022-09-28T01:48:06.228Z,98838.03
2022-09-28T01:51:13.011Z,98839.91
2022-09-28T01:54:40.829Z,98845.00
2022-09-28T01:57:47.342Z,98847.69
2022-09-28T02:00:56.197Z,98846.06
2022-09-28T02:04:04.695Z,98843.69
2022-09-28T02:07:13.041Z,98842.31
2022-09-28T02:10:23.207Z,98847.16
2022-09-28T02:13:33.839Z,98850.38
2022-09-28T02:16:41.224Z,98842.63
2022-09-28T02:19:44.289Z,98853.31
2022-09-28T02:22:52.245Z,98839.97
2022-09-28T02:26:03.947Z,98845.03
2022-09-28T02:29:06.505Z,98849.84
2022-09-28T02:32:08.769Z,98851.97
2022-09-28T02:35:13.822Z,98858.13
2022-09-28T02:38:16.287Z,98847.44
2022-09-28T02:41:26.090Z,98860.53
2022-09-28T02:44:52.971Z,98859.72
2022-09-28T02:48:55.734Z,98848.78
2022-09-28T02:51:53.758Z,98857.31
2022-09-28T02:55:11.506Z,98861.59
2022-09-28T02:58:22.462Z,98849.84
2022-09-28T03:01:52.685Z,98854.38
2022-09-28T03:04:55.107Z,98857.06
2022-09-28T03:08:06.495Z,98855.72
2022-09-28T03:11:14.996Z,98868.00
2022-09-28T03:14:18.802Z,98870.41
2022-09-28T03:17:26.663Z,98872.53
2022-09-28T03:20:30.539Z,98873.88
2022-09-28T03:23:33.269Z,98870.13
2022-09-28T03:26:40.294Z,98873.09
2022-09-28T03:29:42.788Z,98880.28
2022-09-28T03:32:45.311Z,98879.75
2022-09-28T03:35:51.318Z,98869.31
2022-09-28T03:38:56.749Z,98869.59
2022-09-28T03:42:01.308Z,98875.47
2022-09-28T03:45:06.137Z,98875.47
2022-09-28T03:48:08.684Z,98861.03
2022-09-28T03:51:12.226Z,98864.75
2022-09-28T03:54:14.667Z,98879.50
2022-09-28T03:57:16.913Z,98862.66
2022-09-28T04:00:19.840Z,98866.13
2022-09-28T04:03:22.045Z,98871.19
2022-09-28T04:06:25.270Z,98875.75
2022-09-28T04:09:27.598Z,98874.94
2022-09-28T04:12:30.433Z,98873.88
2022-09-28T04:15:32.697Z,98873.59
2022-09-28T04:18:35.299Z,98876.03
2022-09-28T04:21:46.655Z,98870.69
2022-09-28T04:24:50.153Z,98876.53
2022-09-28T04:28:16.369Z,98882.41
2022-09-28T04:31:21.234Z,98882.41
2022-09-28T04:34:23.595Z,98867.19
2022-09-28T04:37:25.921Z,98865.31
2022-09-28T04:40:28.269Z,98873.84
2022-09-28T04:43:31.235Z,98876.53
2022-09-28T04:46:34.141Z,98869.03
2022-09-28T04:49:56.695Z,98880.25
2022-09-28T04:53:06.722Z,98882.69
2022-09-28T04:56:11.921Z,98876.56
2022-09-28T04:59:15.531Z,98881.38
2022-09-28T05:02:18.478Z,98868.81
2022-09-28T05:05:47.699Z,98878.16
2022-09-28T05:09:04.443Z,98888.84
2022-09-28T05:12:09.128Z,98888.03
2022-09-28T05:15:12.636Z,98887.25
2022-09-28T05:18:14.888Z,98882.41
2022-09-28T05:21:25.201Z,98875.50
2022-09-28T05:24:27.415Z,98884.59
2022-09-28T05:27:29.768Z,98891.53
2022-09-28T05:30:41.790Z,98877.63
2022-09-28T05:34:02.599Z,98882.41
2022-09-28T05:37:04.969Z,98888.81
2022-09-28T05:40:07.750Z,98888.56
2022-09-28T05:43:10.029Z,98890.44
2022-09-28T05:46:12.352Z,98877.63
2022-09-28T05:49:17.236Z,98871.47
2022-09-28T05:52:19.901Z,98864.78
2022-09-28T05:55:22.205Z,98881.63
2022-09-28T05:58:24.512Z,98862.13
2022-09-28T06:01:27.293Z,98866.63
2022-09-28T06:04:31.121Z,98855.13
2022-09-28T06:07:34.486Z,98874.06
2022-09-28T06:10:36.868Z,98872.34
2022-09-28T06:13:40.036Z,98872.47
2022-09-28T06:16:44.000Z,98887.44
2022-09-28T06:19:47.462Z,98880.75
2022-09-28T06:23:01.271Z,98884.38
2022-09-28T06:26:03.528Z,98876.44
2022-09-28T06:29:05.997Z,98869.66
2022-09-28T06:32:08.504Z,98888.44
2022-09-28T06:35:15.533Z,98873.56
2022-09-28T06:38:18.562Z,98880.81
2022-09-28T06:41:20.949Z,98875.91
2022-09-28T06:44:24.317Z,98893.03
2022-09-28T06:47:33.840Z,98883.75
2022-09-28T06:50:47.517Z,98899.78
2022-09-28T06:54:01.645Z,98880.22
2022-09-28T06:57:23.876Z,98885.97
2022-09-28T07:00:32.896Z,98902.19
2022-09-28T07:03:35.626Z,98884.78
2022-09-28T07:06:59.159Z,98880.56
2022-09-28T07:10:28.799Z,98887.25
2022-09-28T07:13:50.704Z,98875.69
2022-09-28T07:17:12.442Z,98885.56
2022-09-28T07:20:19.348Z,98891.56
2022-09-28T07:23:24.256Z,98893.94
2022-09-28T07:26:52.112Z,98881.03
2022-09-28T07:30:05.961Z,98883.47
2022-09-28T07:33:31.596Z,98895.34
2022-09-28T07:36:57.451Z,98884.91
2022-09-28T07:40:26.023Z,98895.31
2022-09-28T07:43:28.915Z,98883.84
2022-09-28T07:46:33.010Z,98890.91
2022-09-28T07:49:40.125Z,98876.03
2022-09-28T07:53:10.121Z,98876.44
2022-09-28T07:56:31.043Z,98876.38
2022-09-28T07:59:53.687Z,98888.78
2022-09-28T08:03:24.876Z,98881.28
2022-09-28T08:06:30.228Z,98882.72
2022-09-28T08:09:32.662Z,98894.69
2022-09-28T08:13:01.969Z,98897.53
2022-09-28T08:16:14.190Z,98894.53
2022-09-28T08:20:13.254Z,98872.56
2022-09-28T08:23:16.077Z,98864.59
2022-09-28T08:26:18.529Z,98853.44
2022-09-28T08:29:22.351Z,98850.75
2022-09-28T08:32:24.779Z,98851.22
2022-09-28T08:36:00.321Z,98859.84
2022-09-28T08:39:34.487Z,98850.44
2022-09-28T08:42:57.808Z,98844.19
2022-09-28T08:46:25.028Z,98868.06
2022-09-28T08:49:50.323Z,98876.38
2022-09-28T08:52:57.918Z,98879.09
2022-09-28T08:56:38.024Z,98878.84
2022-09-28T08:59:48.747Z,98886.41
2022-09-28T09:02:56.533Z,98856.53
2022-09-28T09:06:42.671Z,98868.03
2022-09-28T09:10:22.920Z,98874.09
2022-09-28T09:13:56.685Z,98870.91
2022-09-28T09:17:12.240Z,98867.16
2022-09-28T09:20:56.928Z,98863.00
2022-09-28T09:24:18.872Z,98869.03
2022-09-28T09:27:21.163Z,98864.13
2022-09-28T09:30:25.928Z,98869.34
2022-09-28T09:33:52.491Z,98866.34
2022-09-28T09:37:28.638Z,98859.97
2022-09-28T09:44:45.466Z,98845.97
2022-09-28T09:48:13.563Z,98869.22
2022-09-28T09:51:30.068Z,98859.53
2022-09-28T09:54:46.745Z,98864.13
2022-09-28T09:58:14.877Z,98852.22
2022-09-28T10:01:23.514Z,98867.31
2022-09-28T10:04:50.803Z,98859.19
2022-09-28T10:08:13.270Z,98860.59
2022-09-28T10:11:28.069Z,98848.94
2022-09-28T10:14:31.239Z,98853.94
2022-09-28T10:17:42.989Z,98863.34
2022-09-28T10:21:15.275Z,98866.66
2022-09-28T10:24:41.389Z,98870.94
2022-09-28T10:27:46.256Z,98869.69
2022-09-28T10:30:49.771Z,98868.00
2022-09-28T10:33:53.487Z,98870.06
2022-09-28T10:37:00.744Z,98852.22
2022-09-28T10:40:43.879Z,98861.88
2022-09-28T10:44:07.174Z,98866.34
2022-09-28T10:47:17.602Z,98871.72
2022-09-28T10:50:24.244Z,98861.53
2022-09-28T10:53:37.168Z,98882.69
2022-09-28T10:57:02.398Z,98869.25
2022-09-28T11:00:32.024Z,98857.38
2022-09-28T11:03:52.582Z,98876.09
2022-09-28T11:10:28.001Z,98845.59
2022-09-28T11:14:03.819Z,98836.66
2022-09-28T11:17:20.633Z,98832.72
2022-09-28T11:20:28.479Z,98837.34
2022-09-28T11:23:34.983Z,98823.59
2022-09-28T11:26:52.972Z,98830.44
2022-09-28T11:29:59.472Z,98828.25
2022-09-28T11:33:05.524Z,98826.13
2022-09-28T11:37:01.493Z,98830.00
2022-09-28T11:40:13.671Z,98817.25
2022-09-28T11:43:16.844Z,98825.09
2022-09-28T11:46:40.355Z,98826.97
2022-09-28T11:49:54.623Z,98827.16
2022-09-28T11:53:12.006Z,98825.06
2022-09-28T11:56:17.392Z,98819.84
2022-09-28T11:59:27.656Z,98822.41
2022-09-28T12:02:59.468Z,98817.81
2022-09-28T12:06:05.524Z,98797.16
2022-09-28T12:09:16.598Z,98794.16
2022-09-28T12:12:32.894Z,98786.50
2022-09-28T12:16:32.754Z,98794.28
2022-09-28T12:19:46.888Z,98778.06
2022-09-28T12:23:06.014Z,98775.19
2022-09-28T12:26:22.055Z,98769.81
2022-09-28T12:29:32.687Z,98786.19
2022-09-28T12:32:51.243Z,98767.13
2022-09-28T12:36:17.669Z,98761.25
2022-09-28T12:40:00.287Z,98754.25
2022-09-28T12:43:03.346Z,98752.94
2022-09-28T12:46:24.407Z,98745.97
2022-09-28T12:53:24.126Z,98744.84
2022-09-28T12:56:50.298Z,98747.69
2022-09-28T13:00:00.759Z,98748.31
2022-09-28T13:03:03.117Z,98750.34
2022-09-28T13:06:33.768Z,98742.31
2022-09-28T13:09:47.666Z,98732.94
2022-09-28T13:13:26.187Z,98740.34
2022-09-28T13:16:44.079Z,98739.50
2022-09-28T13:19:59.186Z,98740.41
2022-09-28T13:23:07.344Z,98727.72
2022-09-28T13:26:17.591Z,98735.03
2022-09-28T13:29:20.930Z,98727.84
2022-09-28T13:32:25.974Z,98727.97
2022-09-28T13:35:28.586Z,98733.00
2022-09-28T13:38:44.848Z,98732.28
2022-09-28T13:41:48.825Z,98741.50
2022-09-28T13:45:00.793Z,98732.56
2022-09-28T13:48:13.425Z,98734.34
2022-09-28T13:51:44.911Z,98735.88
2022-09-28T13:54:52.813Z,98739.63
2022-09-28T13:58:02.615Z,98732.06
2022-09-28T14:01:12.066Z,98740.38
2022-09-28T14:04:28.978Z,98733.19
2022-09-28T14:08:05.420Z,98741.16
2022-09-28T14:11:34.368Z,98750.59
2022-09-28T14:14:45.891Z,98744.97
2022-09-28T14:17:54.388Z,98738.88
2022-09-28T14:21:02.720Z,98739.47
2022-09-28T14:24:14.818Z,98742.03
2022-09-28T14:27:20.179Z,98736.56
2022-09-28T14:30:23.687Z,98736.66
2022-09-28T14:33:31.143Z,98719.91
2022-09-28T14:37:01.533Z,98709.03
2022-09-28T14:40:49.553Z,98714.19
2022-09-28T14:44:05.668Z,98719.16
2022-09-28T14:47:34.969Z,98708.72
2022-09-28T14:50:37.313Z,98718.22
2022-09-28T14:53:39.924Z,98725.22
2022-09-28T14:56:53.818Z,98705.59
2022-09-28T14:59:59.585Z,98708.81
2022-09-28T15:03:06.741Z,98703.97
2022-09-28T15:06:16.268Z,98709.56
2022-09-28T15:09:38.146Z,98713.25
2022-09-28T15:12:43.668Z,98711.88
2022-09-28T15:15:50.571Z,98706.88
2022-09-28T15:19:21.469Z,98709.69
2022-09-28T15:22:23.702Z,98695.22
2022-09-28T15:25:28.460Z,98694.63
2022-09-28T15:28:30.892Z,98687.56
2022-09-28T15:31:35.881Z,98693.16
2022-09-28T15:34:54.635Z,98695.72
2022-09-28T15:37:57.074Z,98697.94
2022-09-28T15:41:02.834Z,98683.97
2022-09-28T15:44:17.216Z,98686.97
2022-09-28T15:47:27.655Z,98683.97
2022-09-28T15:50:30.370Z,98676.91
2022-09-28T15:53:33.306Z,98682.28
2022-09-28T15:56:55.132Z,98707.50
2022-09-28T15:59:59.199Z,98696.56
2022-09-28T16:03:05.465Z,98696.16
2022-09-28T16:06:09.434Z,98689.59
2022-09-28T16:09:31.569Z,98692.91
2022-09-28T16:12:48.716Z,98696.38
2022-09-28T16:15:58.226Z,98695.28
2022-09-28T16:19:01.270Z,98692.81
2022-09-28T16:22:06.450Z,98684.34
2022-09-28T16:25:17.062Z,98682.75
2022-09-28T16:28:26.600Z,98705.34
2022-09-28T16:31:33.846Z,98681.16
2022-09-28T16:34:36.484Z,98689.81
2022-09-28T16:37:43.055Z,98701.59
2022-09-28T16:40:49.565Z,98694.59
2022-09-28T16:44:02.298Z,98688.31
2022-09-28T16:47:04.609Z,98705.47
2022-09-28T16:50:07.452Z,98697.59
2022-09-28T16:53:33.845Z,98697.59
2022-09-28T16:56:36.712Z,98687.84
2022-09-28T16:59:39.219Z,98696.88
2022-09-28T17:02:46.577Z,98703.34
2022-09-28T17:05:50.397Z,98700.97
2022-09-28T17:08:56.602Z,98693.72
2022-09-28T17:11:58.960Z,98705.25
2022-09-28T17:15:01.195Z,98695.09
2022-09-28T17:18:04.213Z,98686.53
2022-09-28T17:21:10.135Z,98702.56
2022-09-28T17:24:12.376Z,98695.59
2022-09-28T17:27:17.353Z,98694.97
2022-09-28T17:30:23.648Z,98689.56
2022-09-28T17:33:28.398Z,98705.25
2022-09-28T17:36:31.030Z,98694.59
2022-09-28T17:39:33.313Z,98689.34
2022-09-28T17:42:35.511Z,98702.34
2022-09-28T17:45:41.730Z,98701.88
2022-09-28T17:48:46.773Z,98709.09
2022-09-28T17:51:50.300Z,98713.28
2022-09-28T17:54:52.508Z,98710.97
2022-09-28T17:57:55.593Z,98718.94
2022-09-28T18:00:57.861Z,98729.53
2022-09-28T18:04:01.781Z,98721.56
2022-09-28T18:07:04.139Z,98722.16
2022-09-28T18:10:07.141Z,98734.56
2022-09-28T18:13:09.682Z,98733.56
2022-09-28T18:16:12.704Z,98729.06
2022-09-28T18:19:15.220Z,98734.09
2022-09-28T18:22:17.563Z,98738.16
2022-09-28T18:25:19.885Z,98733.44
2022-09-28T18:28:23.100Z,98728.00
2022-09-28T18:31:25.480Z,98738.44
2022-09-28T18:34:27.774Z,98726.75
2022-09-28T18:37:30.148Z,98733.38
2022-09-28T18:40:33.802Z,98735.47
2022-09-28T18:43:37.067Z,98737.72
2022-09-28T18:46:40.656Z,98731.56
2022-09-28T18:49:46.593Z,98740.91
2022-09-28T18:52:49.162Z,98732.72
2022-09-28T18:55:51.428Z,98736.22
2022-09-28T18:58:53.721Z,98745.91
2022-09-28T19:01:56.069Z,98744.97
2022-09-28T19:04:58.501Z,98755.13
2022-09-28T19:08:00.937Z,98751.34
2022-09-28T19:11:15.691Z,98755.66
2022-09-28T19:14:18.000Z,98745.75
2022-09-28T19:17:20.813Z,98757.22
2022-09-28T19:20:23.234Z,98748.69
2022-09-28T19:23:25.543Z,98754.63
2022-09-28T19:26:28.344Z,98759.19
2022-09-28T19:29:30.675Z,98756.63
2022-09-28T19:32:32.956Z,98754.72
2022-09-28T19:35:35.203Z,98749.94
2022-09-28T19:38:39.044Z,98753.72
2022-09-28T19:41:51.392Z,98753.50
2022-09-28T19:44:53.786Z,98736.91
2022-09-28T19:47:59.550Z,98745.22
2022-09-28T19:51:04.008Z,98747.81
2022-09-28T19:54:06.970Z,98745.69
2022-09-28T19:57:09.405Z,98730.66
2022-09-28T20:00:11.847Z,98733.06
2022-09-28T20:03:14.264Z,98728.50
2022-09-28T20:06:17.456Z,98734.88
2022-09-28T20:09:20.154Z,98730.91
2022-09-28T20:12:22.540Z,98719.06
2022-09-28T20:15:25.280Z,98717.44
2022-09-28T20:18:27.866Z,98730.66
2022-09-28T20:21:30.427Z,98720.53
2022-09-28T20:24:32.944Z,98723.38
2022-09-28T20:27:35.385Z,98719.47
2022-09-28T20:30:38.467Z,98724.25
2022-09-28T20:33:44.119Z,98727.03
2022-09-28T20:36:46.413Z,98716.88
2022-09-28T20:39:48.890Z,98714.41
2022-09-28T20:42:51.537Z,98720.00
2022-09-28T20:45:56.237Z,98724.16
2022-09-28T20:48:59.605Z,98720.53
2022-09-28T20:52:02.272Z,98712.25
2022-09-28T20:55:04.942Z,98701.94
2022-09-28T20:58:07.158Z,98708.53
2022-09-28T21:01:14.743Z,98711.50
2022-09-28T21:04:17.089Z,98684.97
2022-09-28T21:07:19.456Z,98695.25
2022-09-28T21:10:21.744Z,98694.63
2022-09-28T21:13:25.132Z,98684.22
2022-09-28T21:16:30.098Z,98706.41
2022-09-28T21:19:32.348Z,98689.94
2022-09-28T21:22:34.651Z,98678.03
2022-09-28T21:25:36.935Z,98679.63
2022-09-28T21:28:39.853Z,98679.63
2022-09-28T21:31:45.775Z,98681.72
2022-09-28T21:34:48.062Z,98678.63
2022-09-28T21:37:50.423Z,98667.38
2022-09-28T21:40:57.044Z,98678.03
2022-09-28T21:43:59.409Z,98666.13
2022-09-28T21:47:01.720Z,98658.81
2022-09-28T21:50:04.095Z,98672.63
2022-09-28T21:53:06.352Z,98677.06
2022-09-28T21:56:11.193Z,98668.97
2022-09-28T21:59:13.474Z,98672.63
2022-09-28T22:02:15.761Z,98676.84
2022-09-28T22:05:19.328Z,98687.44
2022-09-28T22:08:21.949Z,98689.25
2022-09-28T22:11:27.116Z,98695.25
2022-09-28T22:14:29.561Z,98682.31
2022-09-28T22:17:31.845Z,98677.16
2022-09-28T22:20:34.159Z,98665.78
2022-09-28T22:23:37.726Z,98682.88
2022-09-28T22:26:40.519Z,98676.16
2022-09-28T22:29:43.155Z,98669.63
2022-09-28T22:32:45.479Z,98673.06
2022-09-28T22:35:49.264Z,98667.69
2022-09-28T22:38:52.002Z,98670.59
2022-09-28T22:41:54.305Z,98669.56
2022-09-28T22:44:56.594Z,98662.59
2022-09-28T22:47:58.862Z,98668.19
2022-09-28T22:51:01.792Z,98660.94
2022-09-28T22:54:04.332Z,98676.22
2022-09-28T22:57:06.616Z,98670.38
2022-09-28T23:00:09.205Z,98672.38
2022-09-28T23:03:11.635Z,98676.41
2022-09-28T23:06:16.643Z,98669.69
2022-09-28T23:09:19.246Z,98666.50
2022-09-28T23:12:21.558Z,98651.34
2022-09-28T23:15:24.658Z,98660.97
2022-09-28T23:18:31.941Z,98657.22
2022-09-28T23:21:34.355Z,98655.84
2022-09-28T23:24:36.618Z,98674.03
2022-09-28T23:27:38.860Z,98668.69
2022-09-28T23:30:41.070Z,98669.09
2022-09-28T23:33:43.498Z,98683.63
2022-09-28T23:36:45.846Z,98662.44
2022-09-28T23:39:48.108Z,98662.31
2022-09-28T23:42:50.384Z,98666.09
2022-09-28T23:45:52.697Z,98645.16
2022-09-28T23:48:55.013Z,98660.19
2022-09-28T23:51:57.265Z,98661.47
2022-09-28T23:54:59.526Z,98670.56
2022-09-28T23:58:01.786Z,98670.91
